sensor_id;sensor_type;location;lat;lon;timestamp;temperature;humidity
36552;DHT22;22559;54.176;12.102;2022-09-09T00:01:27;14.50;99.90
36552;DHT22;22559;54.176;12.102;2022-09-09T00:06:26;14.60;99.90
36552;DHT22;22559;54.176;12.102;2022-09-09T00:14:50;14.60;99.90
36552;DHT22;22559;54.176;12.102;2022-09-09T00:17:36;14.60;99.90
36552;DHT22;22559;54.176;12.102;2022-09-09T00:20:12;14.60;99.90
36552;DHT22;22559;54.176;12.102;2022-09-09T00:22:42;14.70;99.90
36552;DHT22;22559;54.176;12.102;2022-09-09T00:25:14;14.70;99.90
36552;DHT22;22559;54.176;12.102;2022-09-09T00:27:47;14.70;99.90
36552;DHT22;22559;54.176;12.102;2022-09-09T00:32:44;14.70;99.90
36552;DHT22;22559;54.176;12.102;2022-09-09T00:37:35;14.70;99.90
36552;DHT22;22559;54.176;12.102;2022-09-09T00:40:11;14.70;99.90
36552;DHT22;22559;54.176;12.102;2022-09-09T00:42:43;14.70;99.90
36552;DHT22;22559;54.176;12.102;2022-09-09T00:45:43;14.70;99.90
36552;DHT22;22559;54.176;12.102;2022-09-09T00:48:13;14.70;99.90
36552;DHT22;22559;54.176;12.102;2022-09-09T00:51:07;14.70;99.90
36552;DHT22;22559;54.176;12.102;2022-09-09T00:56:39;14.70;99.90
36552;DHT22;22559;54.176;12.102;2022-09-09T01:01:36;14.70;99.90
36552;DHT22;22559;54.176;12.102;2022-09-09T01:04:04;14.70;99.90
36552;DHT22;22559;54.176;12.102;2022-09-09T01:06:34;14.80;99.90
36552;DHT22;22559;54.176;12.102;2022-09-09T01:09:26;14.80;99.90
36552;DHT22;22559;54.176;12.102;2022-09-09T01:14:48;14.80;99.90
36552;DHT22;22559;54.176;12.102;2022-09-09T01:17:30;14.70;99.90
36552;DHT22;22559;54.176;12.102;2022-09-09T01:27:43;14.80;99.90
36552;DHT22;22559;54.176;12.102;2022-09-09T01:30:11;14.80;99.90
36552;DHT22;22559;54.176;12.102;2022-09-09T01:32:49;14.80;99.90
36552;DHT22;22559;54.176;12.102;2022-09-09T01:38:16;14.80;99.90
36552;DHT22;22559;54.176;12.102;2022-09-09T01:40:42;14.80;99.90
36552;DHT22;22559;54.176;12.102;2022-09-09T01:43:08;14.80;99.90
36552;DHT22;22559;54.176;12.102;2022-09-09T01:45:34;14.80;99.90
36552;DHT22;22559;54.176;12.102;2022-09-09T01:48:00;14.80;99.90
36552;DHT22;22559;54.176;12.102;2022-09-09T01:50:27;14.80;99.90
36552;DHT22;22559;54.176;12.102;2022-09-09T01:52:59;14.80;99.90
36552;DHT22;22559;54.176;12.102;2022-09-09T01:55:33;14.90;99.90
36552;DHT22;22559;54.176;12.102;2022-09-09T01:58:29;14.90;99.90
36552;DHT22;22559;54.176;12.102;2022-09-09T02:01:17;15.00;99.90
36552;DHT22;22559;54.176;12.102;2022-09-09T02:03:52;15.00;99.90
36552;DHT22;22559;54.176;12.102;2022-09-09T02:08:52;15.00;99.90
36552;DHT22;22559;54.176;12.102;2022-09-09T02:11:22;14.90;99.90
36552;DHT22;22559;54.176;12.102;2022-09-09T02:13:52;14.90;99.90
36552;DHT22;22559;54.176;12.102;2022-09-09T02:16:22;15.00;99.90
36552;DHT22;22559;54.176;12.102;2022-09-09T02:19:08;14.90;99.90
36552;DHT22;22559;54.176;12.102;2022-09-09T02:21:35;14.90;99.90
36552;DHT22;22559;54.176;12.102;2022-09-09T02:24:05;15.00;99.90
36552;DHT22;22559;54.176;12.102;2022-09-09T02:26:34;15.00;99.90
36552;DHT22;22559;54.176;12.102;2022-09-09T02:29:03;14.90;99.90
36552;DHT22;22559;54.176;12.102;2022-09-09T02:31:30;14.90;99.90
36552;DHT22;22559;54.176;12.102;2022-09-09T02:33:59;15.00;99.90
36552;DHT22;22559;54.176;12.102;2022-09-09T02:36:29;15.00;99.90
36552;DHT22;22559;54.176;12.102;2022-09-09T02:38:56;15.00;99.90
36552;DHT22;22559;54.176;12.102;2022-09-09T02:41:38;15.00;99.90
36552;DHT22;22559;54.176;12.102;2022-09-09T02:44:15;15.00;99.90
36552;DHT22;22559;54.176;12.102;2022-09-09T02:47:00;14.90;99.90
36552;DHT22;22559;54.176;12.102;2022-09-09T02:52:15;14.90;99.90
36552;DHT22;22559;54.176;12.102;2022-09-09T02:54:42;14.90;99.90
36552;DHT22;22559;54.176;12.102;2022-09-09T02:57:25;14.90;99.90
36552;DHT22;22559;54.176;12.102;2022-09-09T02:59:51;14.90;99.90
36552;DHT22;22559;54.176;12.102;2022-09-09T03:02:20;15.00;99.90
36552;DHT22;22559;54.176;12.102;2022-09-09T03:04:45;15.00;99.90
36552;DHT22;22559;54.176;12.102;2022-09-09T03:07:16;15.00;99.90
36552;DHT22;22559;54.176;12.102;2022-09-09T03:09:43;15.00;99.90
36552;DHT22;22559;54.176;12.102;2022-09-09T03:12:08;15.00;99.90
36552;DHT22;22559;54.176;12.102;2022-09-09T03:14:36;14.90;99.90
36552;DHT22;22559;54.176;12.102;2022-09-09T03:17:04;14.90;99.90
36552;DHT22;22559;54.176;12.102;2022-09-09T03:19:30;15.00;99.90
36552;DHT22;22559;54.176;12.102;2022-09-09T03:21:57;15.00;99.90
36552;DHT22;22559;54.176;12.102;2022-09-09T03:24:23;15.00;99.90
36552;DHT22;22559;54.176;12.102;2022-09-09T03:26:49;15.10;99.90
36552;DHT22;22559;54.176;12.102;2022-09-09T03:29:16;15.10;99.90
36552;DHT22;22559;54.176;12.102;2022-09-09T03:31:43;15.10;99.90
36552;DHT22;22559;54.176;12.102;2022-09-09T03:34:10;15.10;99.90
36552;DHT22;22559;54.176;12.102;2022-09-09T03:36:37;15.20;99.90
36552;DHT22;22559;54.176;12.102;2022-09-09T03:39:03;15.10;99.90
36552;DHT22;22559;54.176;12.102;2022-09-09T03:41:28;15.10;99.90
36552;DHT22;22559;54.176;12.102;2022-09-09T03:43:55;15.10;99.90
36552;DHT22;22559;54.176;12.102;2022-09-09T03:46:22;15.10;99.90
36552;DHT22;22559;54.176;12.102;2022-09-09T03:48:49;15.10;99.90
36552;DHT22;22559;54.176;12.102;2022-09-09T03:51:14;15.10;99.90
36552;DHT22;22559;54.176;12.102;2022-09-09T03:53:41;15.10;99.90
36552;DHT22;22559;54.176;12.102;2022-09-09T03:56:08;15.10;99.90
36552;DHT22;22559;54.176;12.102;2022-09-09T03:58:35;15.00;99.90
36552;DHT22;22559;54.176;12.102;2022-09-09T04:01:07;15.00;99.90
36552;DHT22;22559;54.176;12.102;2022-09-09T04:03:36;15.10;99.90
36552;DHT22;22559;54.176;12.102;2022-09-09T04:06:03;15.10;99.90
36552;DHT22;22559;54.176;12.102;2022-09-09T04:08:30;15.10;99.90
36552;DHT22;22559;54.176;12.102;2022-09-09T04:10:59;15.10;99.90
36552;DHT22;22559;54.176;12.102;2022-09-09T04:13:25;15.10;99.90
36552;DHT22;22559;54.176;12.102;2022-09-09T04:15:56;15.10;99.90
36552;DHT22;22559;54.176;12.102;2022-09-09T04:18:23;15.00;99.90
36552;DHT22;22559;54.176;12.102;2022-09-09T04:20:50;15.00;99.90
36552;DHT22;22559;54.176;12.102;2022-09-09T04:23:16;15.00;99.90
36552;DHT22;22559;54.176;12.102;2022-09-09T04:25:45;15.00;99.90
36552;DHT22;22559;54.176;12.102;2022-09-09T04:28:13;15.10;99.90
36552;DHT22;22559;54.176;12.102;2022-09-09T04:30:38;15.10;99.90
36552;DHT22;22559;54.176;12.102;2022-09-09T04:33:05;15.10;99.90
36552;DHT22;22559;54.176;12.102;2022-09-09T04:35:31;15.10;99.90
36552;DHT22;22559;54.176;12.102;2022-09-09T04:37:57;15.10;99.90
36552;DHT22;22559;54.176;12.102;2022-09-09T04:40:23;15.10;99.90
36552;DHT22;22559;54.176;12.102;2022-09-09T04:42:48;15.10;99.90
36552;DHT22;22559;54.176;12.102;2022-09-09T04:45:15;15.10;99.90
36552;DHT22;22559;54.176;12.102;2022-09-09T04:47:40;15.10;99.90
36552;DHT22;22559;54.176;12.102;2022-09-09T04:50:07;15.20;99.90
36552;DHT22;22559;54.176;12.102;2022-09-09T04:52:34;15.10;99.90
36552;DHT22;22559;54.176;12.102;2022-09-09T04:55:01;15.10;99.90
36552;DHT22;22559;54.176;12.102;2022-09-09T04:57:26;15.10;99.90
36552;DHT22;22559;54.176;12.102;2022-09-09T04:59:52;15.20;99.90
36552;DHT22;22559;54.176;12.102;2022-09-09T05:02:17;15.10;99.90
36552;DHT22;22559;54.176;12.102;2022-09-09T05:04:43;15.20;99.90
36552;DHT22;22559;54.176;12.102;2022-09-09T05:07:08;15.20;99.90
36552;DHT22;22559;54.176;12.102;2022-09-09T05:09:34;15.20;99.90
36552;DHT22;22559;54.176;12.102;2022-09-09T05:12:00;15.20;99.90
36552;DHT22;22559;54.176;12.102;2022-09-09T05:14:26;15.20;99.90
36552;DHT22;22559;54.176;12.102;2022-09-09T05:16:52;15.20;99.90
36552;DHT22;22559;54.176;12.102;2022-09-09T05:19:18;15.10;99.90
36552;DHT22;22559;54.176;12.102;2022-09-09T05:21:45;15.10;99.90
36552;DHT22;22559;54.176;12.102;2022-09-09T05:24:11;15.10;99.90
36552;DHT22;22559;54.176;12.102;2022-09-09T05:26:36;15.10;99.90
36552;DHT22;22559;54.176;12.102;2022-09-09T05:29:02;15.10;99.90
36552;DHT22;22559;54.176;12.102;2022-09-09T05:31:30;15.10;99.90
36552;DHT22;22559;54.176;12.102;2022-09-09T05:33:56;15.10;99.90
36552;DHT22;22559;54.176;12.102;2022-09-09T05:36:22;15.20;99.90
36552;DHT22;22559;54.176;12.102;2022-09-09T05:38:48;15.20;99.90
36552;DHT22;22559;54.176;12.102;2022-09-09T05:41:15;15.20;99.90
36552;DHT22;22559;54.176;12.102;2022-09-09T05:43:43;15.20;99.90
36552;DHT22;22559;54.176;12.102;2022-09-09T05:46:14;15.30;99.90
36552;DHT22;22559;54.176;12.102;2022-09-09T05:48:45;15.30;99.90
36552;DHT22;22559;54.176;12.102;2022-09-09T05:51:17;15.30;99.90
36552;DHT22;22559;54.176;12.102;2022-09-09T05:53:44;15.30;99.90
36552;DHT22;22559;54.176;12.102;2022-09-09T05:56:12;15.30;99.90
36552;DHT22;22559;54.176;12.102;2022-09-09T05:58:39;15.40;99.90
36552;DHT22;22559;54.176;12.102;2022-09-09T06:01:06;15.40;99.90
36552;DHT22;22559;54.176;12.102;2022-09-09T06:03:34;15.40;99.90
36552;DHT22;22559;54.176;12.102;2022-09-09T06:06:02;15.40;99.90
36552;DHT22;22559;54.176;12.102;2022-09-09T06:08:31;15.40;99.90
36552;DHT22;22559;54.176;12.102;2022-09-09T06:11:04;15.40;99.90
36552;DHT22;22559;54.176;12.102;2022-09-09T06:13:31;15.50;99.90
36552;DHT22;22559;54.176;12.102;2022-09-09T06:15:56;15.50;99.90
36552;DHT22;22559;54.176;12.102;2022-09-09T06:18:24;15.60;99.90
36552;DHT22;22559;54.176;12.102;2022-09-09T06:21:19;15.60;99.90
36552;DHT22;22559;54.176;12.102;2022-09-09T06:23:46;15.60;99.90
36552;DHT22;22559;54.176;12.102;2022-09-09T06:26:20;15.60;99.90
36552;DHT22;22559;54.176;12.102;2022-09-09T06:28:49;15.60;99.90
36552;DHT22;22559;54.176;12.102;2022-09-09T06:31:17;15.60;99.90
36552;DHT22;22559;54.176;12.102;2022-09-09T06:33:43;15.70;99.90
36552;DHT22;22559;54.176;12.102;2022-09-09T06:36:18;15.70;99.90
36552;DHT22;22559;54.176;12.102;2022-09-09T06:38:45;15.70;99.90
36552;DHT22;22559;54.176;12.102;2022-09-09T06:41:13;15.70;99.90
36552;DHT22;22559;54.176;12.102;2022-09-09T06:43:39;15.70;99.90
36552;DHT22;22559;54.176;12.102;2022-09-09T06:46:10;15.70;99.90
36552;DHT22;22559;54.176;12.102;2022-09-09T06:48:36;15.70;99.90
36552;DHT22;22559;54.176;12.102;2022-09-09T06:51:07;15.80;99.90
36552;DHT22;22559;54.176;12.102;2022-09-09T06:53:35;15.80;99.90
36552;DHT22;22559;54.176;12.102;2022-09-09T06:58:36;15.90;99.90
36552;DHT22;22559;54.176;12.102;2022-09-09T07:01:06;15.90;99.90
36552;DHT22;22559;54.176;12.102;2022-09-09T07:03:32;16.00;99.90
36552;DHT22;22559;54.176;12.102;2022-09-09T07:05:58;16.00;99.90
36552;DHT22;22559;54.176;12.102;2022-09-09T07:08:24;16.10;99.90
36552;DHT22;22559;54.176;12.102;2022-09-09T07:10:51;16.10;99.90
36552;DHT22;22559;54.176;12.102;2022-09-09T07:13:23;16.00;99.90
36552;DHT22;22559;54.176;12.102;2022-09-09T07:15:51;16.10;99.90
36552;DHT22;22559;54.176;12.102;2022-09-09T07:18:16;16.10;99.90
36552;DHT22;22559;54.176;12.102;2022-09-09T07:20:42;16.10;99.90
36552;DHT22;22559;54.176;12.102;2022-09-09T07:23:08;16.10;99.90
36552;DHT22;22559;54.176;12.102;2022-09-09T07:25:33;16.10;99.90
36552;DHT22;22559;54.176;12.102;2022-09-09T07:27:59;16.00;99.90
36552;DHT22;22559;54.176;12.102;2022-09-09T07:30:25;16.00;99.90
36552;DHT22;22559;54.176;12.102;2022-09-09T07:32:53;16.00;99.90
36552;DHT22;22559;54.176;12.102;2022-09-09T07:35:19;16.00;99.90
36552;DHT22;22559;54.176;12.102;2022-09-09T07:37:45;16.00;99.90
36552;DHT22;22559;54.176;12.102;2022-09-09T07:40:11;16.00;99.90
36552;DHT22;22559;54.176;12.102;2022-09-09T07:42:36;16.10;99.90
36552;DHT22;22559;54.176;12.102;2022-09-09T07:45:03;16.20;99.90
36552;DHT22;22559;54.176;12.102;2022-09-09T07:47:29;16.20;99.90
36552;DHT22;22559;54.176;12.102;2022-09-09T07:49:55;16.10;99.90
36552;DHT22;22559;54.176;12.102;2022-09-09T07:52:21;16.10;99.90
36552;DHT22;22559;54.176;12.102;2022-09-09T07:54:47;16.10;99.90
36552;DHT22;22559;54.176;12.102;2022-09-09T07:57:12;16.10;99.90
36552;DHT22;22559;54.176;12.102;2022-09-09T07:59:38;16.10;99.90
36552;DHT22;22559;54.176;12.102;2022-09-09T08:02:04;16.20;99.90
36552;DHT22;22559;54.176;12.102;2022-09-09T08:04:30;16.20;99.90
36552;DHT22;22559;54.176;12.102;2022-09-09T08:06:58;16.20;99.90
36552;DHT22;22559;54.176;12.102;2022-09-09T08:09:24;16.20;99.90
36552;DHT22;22559;54.176;12.102;2022-09-09T08:11:52;16.20;99.90
36552;DHT22;22559;54.176;12.102;2022-09-09T08:14:18;16.20;99.90
36552;DHT22;22559;54.176;12.102;2022-09-09T08:16:46;16.20;99.90
36552;DHT22;22559;54.176;12.102;2022-09-09T08:19:12;16.30;99.90
36552;DHT22;22559;54.176;12.102;2022-09-09T08:21:41;16.40;99.90
36552;DHT22;22559;54.176;12.102;2022-09-09T08:24:08;16.30;99.90
36552;DHT22;22559;54.176;12.102;2022-09-09T08:26:39;16.40;99.90
36552;DHT22;22559;54.176;12.102;2022-09-09T08:29:08;16.40;99.90
36552;DHT22;22559;54.176;12.102;2022-09-09T08:31:40;16.40;99.90
36552;DHT22;22559;54.176;12.102;2022-09-09T08:34:07;16.50;99.90
36552;DHT22;22559;54.176;12.102;2022-09-09T08:36:36;16.60;99.90
36552;DHT22;22559;54.176;12.102;2022-09-09T08:39:03;16.70;99.90
36552;DHT22;22559;54.176;12.102;2022-09-09T08:50:07;16.40;99.90
36552;DHT22;22559;54.176;12.102;2022-09-09T08:58:23;16.40;99.90
36552;DHT22;22559;54.176;12.102;2022-09-09T09:11:58;17.50;99.90
36552;DHT22;22559;54.176;12.102;2022-09-09T09:14:29;17.70;99.90
36552;DHT22;22559;54.176;12.102;2022-09-09T09:17:03;17.60;99.90
36552;DHT22;22559;54.176;12.102;2022-09-09T09:19:31;17.50;99.90
36552;DHT22;22559;54.176;12.102;2022-09-09T09:22:21;17.50;99.90
36552;DHT22;22559;54.176;12.102;2022-09-09T09:25:23;17.60;99.90
36552;DHT22;22559;54.176;12.102;2022-09-09T09:27:59;17.70;99.90
36552;DHT22;22559;54.176;12.102;2022-09-09T09:30:41;17.70;99.90
36552;DHT22;22559;54.176;12.102;2022-09-09T09:33:30;17.70;99.90
36552;DHT22;22559;54.176;12.102;2022-09-09T09:35:58;17.70;99.90
36552;DHT22;22559;54.176;12.102;2022-09-09T09:38:26;17.80;99.90
36552;DHT22;22559;54.176;12.102;2022-09-09T09:40:55;17.80;99.90
36552;DHT22;22559;54.176;12.102;2022-09-09T09:45:55;17.80;99.90
36552;DHT22;22559;54.176;12.102;2022-09-09T09:48:23;17.80;99.90
36552;DHT22;22559;54.176;12.102;2022-09-09T09:50:51;17.80;99.90
36552;DHT22;22559;54.176;12.102;2022-09-09T09:53:22;17.90;99.90
36552;DHT22;22559;54.176;12.102;2022-09-09T09:56:03;18.10;99.90
36552;DHT22;22559;54.176;12.102;2022-09-09T09:58:32;18.50;99.90
36552;DHT22;22559;54.176;12.102;2022-09-09T10:01:00;19.00;99.90
36552;DHT22;22559;54.176;12.102;2022-09-09T10:03:31;19.50;99.90
36552;DHT22;22559;54.176;12.102;2022-09-09T10:05:57;19.70;99.90
36552;DHT22;22559;54.176;12.102;2022-09-09T10:08:24;20.10;99.90
36552;DHT22;22559;54.176;12.102;2022-09-09T10:14:08;21.40;99.90
36552;DHT22;22559;54.176;12.102;2022-09-09T10:19:33;22.50;99.90
36552;DHT22;22559;54.176;12.102;2022-09-09T10:22:09;22.60;99.90
36552;DHT22;22559;54.176;12.102;2022-09-09T10:36:13;24.10;99.90
36552;DHT22;22559;54.176;12.102;2022-09-09T10:39:01;24.00;99.90
36552;DHT22;22559;54.176;12.102;2022-09-09T10:42:02;23.50;99.90
36552;DHT22;22559;54.176;12.102;2022-09-09T10:50:50;24.70;99.90
36552;DHT22;22559;54.176;12.102;2022-09-09T10:53:47;25.10;99.90
36552;DHT22;22559;54.176;12.102;2022-09-09T10:56:16;24.90;99.90
36552;DHT22;22559;54.176;12.102;2022-09-09T10:58:56;24.40;99.90
36552;DHT22;22559;54.176;12.102;2022-09-09T11:01:37;24.30;99.90
36552;DHT22;22559;54.176;12.102;2022-09-09T11:06:48;24.70;99.90
36552;DHT22;22559;54.176;12.102;2022-09-09T11:09:19;24.50;99.90
36552;DHT22;22559;54.176;12.102;2022-09-09T11:11:54;24.70;99.90
36552;DHT22;22559;54.176;12.102;2022-09-09T11:17:04;24.90;99.90
36552;DHT22;22559;54.176;12.102;2022-09-09T11:19:40;24.80;99.90
36552;DHT22;22559;54.176;12.102;2022-09-09T11:27:49;25.00;99.90
36552;DHT22;22559;54.176;12.102;2022-09-09T11:40:41;24.50;99.90
36552;DHT22;22559;54.176;12.102;2022-09-09T11:46:07;23.80;99.90
36552;DHT22;22559;54.176;12.102;2022-09-09T11:48:34;23.50;99.90
36552;DHT22;22559;54.176;12.102;2022-09-09T11:51:09;23.60;99.90
36552;DHT22;22559;54.176;12.102;2022-09-09T11:56:33;23.60;99.90
36552;DHT22;22559;54.176;12.102;2022-09-09T12:04:37;23.40;99.90
36552;DHT22;22559;54.176;12.102;2022-09-09T12:09:56;23.30;99.90
36552;DHT22;22559;54.176;12.102;2022-09-09T12:12:28;23.30;99.90
36552;DHT22;22559;54.176;12.102;2022-09-09T12:14:56;23.80;99.90
36552;DHT22;22559;54.176;12.102;2022-09-09T12:17:23;24.00;99.90
36552;DHT22;22559;54.176;12.102;2022-09-09T12:20:43;24.10;99.90
36552;DHT22;22559;54.176;12.102;2022-09-09T12:23:02;23.80;99.90
36552;DHT22;22559;54.176;12.102;2022-09-09T12:28:15;24.10;99.90
36552;DHT22;22559;54.176;12.102;2022-09-09T12:33:44;23.70;99.90
36552;DHT22;22559;54.176;12.102;2022-09-09T12:36:16;23.10;99.90
36552;DHT22;22559;54.176;12.102;2022-09-09T12:38:43;22.90;99.90
36552;DHT22;22559;54.176;12.102;2022-09-09T12:41:24;22.70;99.90
36552;DHT22;22559;54.176;12.102;2022-09-09T12:43:51;22.50;99.90
36552;DHT22;22559;54.176;12.102;2022-09-09T12:46:28;22.40;99.90
36552;DHT22;22559;54.176;12.102;2022-09-09T12:48:56;22.40;99.90
36552;DHT22;22559;54.176;12.102;2022-09-09T12:51:30;22.30;99.90
36552;DHT22;22559;54.176;12.102;2022-09-09T12:53:56;22.30;99.90
36552;DHT22;22559;54.176;12.102;2022-09-09T12:56:29;22.30;99.90
36552;DHT22;22559;54.176;12.102;2022-09-09T12:58:57;22.20;99.90
36552;DHT22;22559;54.176;12.102;2022-09-09T13:01:32;22.20;99.90
36552;DHT22;22559;54.176;12.102;2022-09-09T13:03:58;21.80;99.90
36552;DHT22;22559;54.176;12.102;2022-09-09T13:06:29;21.80;99.90
36552;DHT22;22559;54.176;12.102;2022-09-09T13:08:57;22.00;99.90
36552;DHT22;22559;54.176;12.102;2022-09-09T13:11:37;22.50;99.90
36552;DHT22;22559;54.176;12.102;2022-09-09T13:14:05;23.20;99.90
36552;DHT22;22559;54.176;12.102;2022-09-09T13:16:34;23.30;99.90
36552;DHT22;22559;54.176;12.102;2022-09-09T13:19:06;23.30;99.90
36552;DHT22;22559;54.176;12.102;2022-09-09T13:21:34;23.00;99.90
36552;DHT22;22559;54.176;12.102;2022-09-09T13:24:00;22.80;99.90
36552;DHT22;22559;54.176;12.102;2022-09-09T13:26:29;22.40;99.90
36552;DHT22;22559;54.176;12.102;2022-09-09T13:29:06;21.90;99.90
36552;DHT22;22559;54.176;12.102;2022-09-09T13:31:35;21.50;99.90
36552;DHT22;22559;54.176;12.102;2022-09-09T13:34:24;21.30;99.90
36552;DHT22;22559;54.176;12.102;2022-09-09T13:36:56;21.10;99.90
36552;DHT22;22559;54.176;12.102;2022-09-09T13:39:24;21.00;99.90
36552;DHT22;22559;54.176;12.102;2022-09-09T13:41:49;20.80;99.90
36552;DHT22;22559;54.176;12.102;2022-09-09T13:44:27;20.90;99.90
36552;DHT22;22559;54.176;12.102;2022-09-09T13:47:18;20.80;99.90
36552;DHT22;22559;54.176;12.102;2022-09-09T13:49:47;20.60;99.90
36552;DHT22;22559;54.176;12.102;2022-09-09T13:52:15;20.40;99.90
36552;DHT22;22559;54.176;12.102;2022-09-09T13:54:42;20.20;99.90
36552;DHT22;22559;54.176;12.102;2022-09-09T13:57:34;20.10;99.90
36552;DHT22;22559;54.176;12.102;2022-09-09T14:00:01;20.10;99.90
36552;DHT22;22559;54.176;12.102;2022-09-09T14:02:26;20.00;99.90
36552;DHT22;22559;54.176;12.102;2022-09-09T14:04:52;20.10;99.90
36552;DHT22;22559;54.176;12.102;2022-09-09T14:07:20;20.00;99.90
36552;DHT22;22559;54.176;12.102;2022-09-09T14:09:46;20.10;99.90
36552;DHT22;22559;54.176;12.102;2022-09-09T14:12:15;20.00;99.90
36552;DHT22;22559;54.176;12.102;2022-09-09T14:14:42;20.00;99.90
36552;DHT22;22559;54.176;12.102;2022-09-09T14:17:08;20.00;99.90
36552;DHT22;22559;54.176;12.102;2022-09-09T14:19:34;20.00;99.90
36552;DHT22;22559;54.176;12.102;2022-09-09T14:22:00;19.90;99.90
36552;DHT22;22559;54.176;12.102;2022-09-09T14:24:26;19.90;99.90
36552;DHT22;22559;54.176;12.102;2022-09-09T14:26:53;19.70;99.90
36552;DHT22;22559;54.176;12.102;2022-09-09T14:29:19;19.70;99.90
36552;DHT22;22559;54.176;12.102;2022-09-09T14:31:45;19.70;99.90
36552;DHT22;22559;54.176;12.102;2022-09-09T14:34:10;19.70;99.90
36552;DHT22;22559;54.176;12.102;2022-09-09T14:36:37;19.70;99.90
36552;DHT22;22559;54.176;12.102;2022-09-09T14:39:03;19.60;99.90
36552;DHT22;22559;54.176;12.102;2022-09-09T14:41:30;19.40;99.90
36552;DHT22;22559;54.176;12.102;2022-09-09T14:43:55;19.20;99.90
36552;DHT22;22559;54.176;12.102;2022-09-09T14:46:21;19.00;99.90
36552;DHT22;22559;54.176;12.102;2022-09-09T14:48:47;18.90;99.90
36552;DHT22;22559;54.176;12.102;2022-09-09T14:51:21;18.80;99.90
36552;DHT22;22559;54.176;12.102;2022-09-09T14:53:57;18.60;99.90
36552;DHT22;22559;54.176;12.102;2022-09-09T14:56:25;18.70;99.90
36552;DHT22;22559;54.176;12.102;2022-09-09T14:58:55;18.50;99.90
36552;DHT22;22559;54.176;12.102;2022-09-09T15:01:22;18.40;99.90
36552;DHT22;22559;54.176;12.102;2022-09-09T15:04:02;18.20;99.90
36552;DHT22;22559;54.176;12.102;2022-09-09T15:06:30;18.10;99.90
36552;DHT22;22559;54.176;12.102;2022-09-09T15:08:57;18.10;99.90
36552;DHT22;22559;54.176;12.102;2022-09-09T15:11:23;18.10;99.90
36552;DHT22;22559;54.176;12.102;2022-09-09T15:13:51;18.00;99.90
36552;DHT22;22559;54.176;12.102;2022-09-09T15:16:19;18.10;99.90
36552;DHT22;22559;54.176;12.102;2022-09-09T15:18:46;18.10;99.90
36552;DHT22;22559;54.176;12.102;2022-09-09T15:21:13;18.10;99.90
36552;DHT22;22559;54.176;12.102;2022-09-09T15:23:39;18.20;99.90
36552;DHT22;22559;54.176;12.102;2022-09-09T15:26:05;18.10;99.90
36552;DHT22;22559;54.176;12.102;2022-09-09T15:28:32;18.20;99.90
36552;DHT22;22559;54.176;12.102;2022-09-09T15:31:16;18.20;99.90
36552;DHT22;22559;54.176;12.102;2022-09-09T15:33:58;18.20;99.90
36552;DHT22;22559;54.176;12.102;2022-09-09T15:36:38;18.20;99.90
36552;DHT22;22559;54.176;12.102;2022-09-09T15:39:06;18.10;99.90
36552;DHT22;22559;54.176;12.102;2022-09-09T15:41:33;18.10;99.90
36552;DHT22;22559;54.176;12.102;2022-09-09T15:43:59;18.00;99.90
36552;DHT22;22559;54.176;12.102;2022-09-09T15:46:39;18.00;99.90
36552;DHT22;22559;54.176;12.102;2022-09-09T15:49:10;18.00;99.90
36552;DHT22;22559;54.176;12.102;2022-09-09T15:51:38;18.00;99.90
36552;DHT22;22559;54.176;12.102;2022-09-09T15:54:04;18.00;99.90
36552;DHT22;22559;54.176;12.102;2022-09-09T15:56:30;17.90;99.90
36552;DHT22;22559;54.176;12.102;2022-09-09T15:58:57;17.90;99.90
36552;DHT22;22559;54.176;12.102;2022-09-09T16:01:23;17.90;99.90
36552;DHT22;22559;54.176;12.102;2022-09-09T16:03:49;17.90;99.90
36552;DHT22;22559;54.176;12.102;2022-09-09T16:06:18;17.90;99.90
36552;DHT22;22559;54.176;12.102;2022-09-09T16:08:47;17.80;99.90
36552;DHT22;22559;54.176;12.102;2022-09-09T16:11:19;17.80;99.90
36552;DHT22;22559;54.176;12.102;2022-09-09T16:13:49;17.80;99.90
36552;DHT22;22559;54.176;12.102;2022-09-09T16:16:16;17.80;99.90
36552;DHT22;22559;54.176;12.102;2022-09-09T16:18:44;17.70;99.90
36552;DHT22;22559;54.176;12.102;2022-09-09T16:21:16;17.70;99.90
36552;DHT22;22559;54.176;12.102;2022-09-09T16:23:42;17.60;99.90
36552;DHT22;22559;54.176;12.102;2022-09-09T16:26:11;17.70;99.90
36552;DHT22;22559;54.176;12.102;2022-09-09T16:28:37;17.50;99.90
36552;DHT22;22559;54.176;12.102;2022-09-09T16:31:10;17.50;99.90
36552;DHT22;22559;54.176;12.102;2022-09-09T16:33:39;17.50;99.90
36552;DHT22;22559;54.176;12.102;2022-09-09T16:36:07;17.40;99.90
36552;DHT22;22559;54.176;12.102;2022-09-09T16:38:33;17.40;99.90
36552;DHT22;22559;54.176;12.102;2022-09-09T16:41:01;17.40;99.90
36552;DHT22;22559;54.176;12.102;2022-09-09T16:43:27;17.40;99.90
36552;DHT22;22559;54.176;12.102;2022-09-09T16:45:52;17.40;99.90
36552;DHT22;22559;54.176;12.102;2022-09-09T16:48:18;17.40;99.90
36552;DHT22;22559;54.176;12.102;2022-09-09T16:50:43;17.40;99.90
36552;DHT22;22559;54.176;12.102;2022-09-09T16:53:09;17.40;99.90
36552;DHT22;22559;54.176;12.102;2022-09-09T16:55:40;17.40;99.90
36552;DHT22;22559;54.176;12.102;2022-09-09T16:58:07;17.50;99.90
36552;DHT22;22559;54.176;12.102;2022-09-09T17:00:34;17.70;99.90
36552;DHT22;22559;54.176;12.102;2022-09-09T17:03:00;17.70;99.90
36552;DHT22;22559;54.176;12.102;2022-09-09T17:05:26;17.70;99.90
36552;DHT22;22559;54.176;12.102;2022-09-09T17:07:51;17.60;99.90
36552;DHT22;22559;54.176;12.102;2022-09-09T17:10:17;17.50;99.90
36552;DHT22;22559;54.176;12.102;2022-09-09T17:12:43;17.30;99.90
36552;DHT22;22559;54.176;12.102;2022-09-09T17:15:09;17.30;99.90
36552;DHT22;22559;54.176;12.102;2022-09-09T17:17:35;17.30;99.90
36552;DHT22;22559;54.176;12.102;2022-09-09T17:20:01;17.30;99.90
36552;DHT22;22559;54.176;12.102;2022-09-09T17:22:27;17.30;99.90
36552;DHT22;22559;54.176;12.102;2022-09-09T17:24:54;17.30;99.90
36552;DHT22;22559;54.176;12.102;2022-09-09T17:27:20;17.30;99.90
36552;DHT22;22559;54.176;12.102;2022-09-09T17:29:45;17.20;99.90
36552;DHT22;22559;54.176;12.102;2022-09-09T17:32:12;17.20;99.90
36552;DHT22;22559;54.176;12.102;2022-09-09T17:34:37;17.20;99.90
36552;DHT22;22559;54.176;12.102;2022-09-09T17:37:04;17.10;99.90
36552;DHT22;22559;54.176;12.102;2022-09-09T17:39:31;17.10;99.90
36552;DHT22;22559;54.176;12.102;2022-09-09T17:41:57;17.10;99.90
36552;DHT22;22559;54.176;12.102;2022-09-09T17:44:22;17.00;99.90